sensor_id;sensor_type;location;lat;lon;timestamp;temperature;humidity
1329;DHT22;658;48.820;9.354;2022-09-01T00:01:22;24.80;56.10
1329;DHT22;658;48.820;9.354;2022-09-01T00:05:26;24.80;56.20
1329;DHT22;658;48.820;9.354;2022-09-01T00:09:26;24.80;56.20
1329;DHT22;658;48.820;9.354;2022-09-01T00:13:27;24.80;56.20
1329;DHT22;658;48.820;9.354;2022-09-01T00:17:32;24.80;56.20
1329;DHT22;658;48.820;9.354;2022-09-01T00:21:37;24.70;56.20
1329;DHT22;658;48.820;9.354;2022-09-01T00:25:39;24.70;56.30
1329;DHT22;658;48.820;9.354;2022-09-01T00:29:40;24.60;56.20
1329;DHT22;658;48.820;9.354;2022-09-01T00:33:41;24.70;56.40
1329;DHT22;658;48.820;9.354;2022-09-01T00:37:43;24.60;56.40
1329;DHT22;658;48.820;9.354;2022-09-01T00:41:45;24.60;56.50
1329;DHT22;658;48.820;9.354;2022-09-01T00:45:46;24.50;56.70
1329;DHT22;658;48.820;9.354;2022-09-01T00:49:48;24.40;56.90
1329;DHT22;658;48.820;9.354;2022-09-01T00:53:51;24.40;57.10
1329;DHT22;658;48.820;9.354;2022-09-01T00:57:52;24.20;57.10
1329;DHT22;658;48.820;9.354;2022-09-01T01:01:53;24.20;57.30
1329;DHT22;658;48.820;9.354;2022-09-01T01:05:55;24.20;57.40
1329;DHT22;658;48.820;9.354;2022-09-01T01:09:57;24.20;57.50
1329;DHT22;658;48.820;9.354;2022-09-01T01:14:07;24.30;57.20
1329;DHT22;658;48.820;9.354;2022-09-01T01:18:16;24.30;57.10
1329;DHT22;658;48.820;9.354;2022-09-01T01:22:25;24.30;57.00
1329;DHT22;658;48.820;9.354;2022-09-01T01:26:45;24.40;57.20
1329;DHT22;658;48.820;9.354;2022-09-01T01:30:50;24.30;57.00
1329;DHT22;658;48.820;9.354;2022-09-01T01:34:51;24.30;56.90
1329;DHT22;658;48.820;9.354;2022-09-01T01:38:53;24.30;56.90
1329;DHT22;658;48.820;9.354;2022-09-01T01:42:55;24.30;56.90
1329;DHT22;658;48.820;9.354;2022-09-01T01:46:56;24.30;57.00
1329;DHT22;658;48.820;9.354;2022-09-01T01:50:57;24.30;56.90
1329;DHT22;658;48.820;9.354;2022-09-01T01:54:59;24.30;56.90
1329;DHT22;658;48.820;9.354;2022-09-01T01:58:59;24.30;56.90
1329;DHT22;658;48.820;9.354;2022-09-01T02:03:01;24.10;57.00
1329;DHT22;658;48.820;9.354;2022-09-01T02:07:02;24.10;57.30
1329;DHT22;658;48.820;9.354;2022-09-01T02:11:04;24.10;57.40
1329;DHT22;658;48.820;9.354;2022-09-01T02:15:05;24.10;57.20
1329;DHT22;658;48.820;9.354;2022-09-01T02:19:07;24.10;57.10
1329;DHT22;658;48.820;9.354;2022-09-01T02:23:10;24.10;57.10
1329;DHT22;658;48.820;9.354;2022-09-01T02:27:11;24.10;57.00
1329;DHT22;658;48.820;9.354;2022-09-01T02:31:11;24.10;57.10
1329;DHT22;658;48.820;9.354;2022-09-01T02:35:12;24.10;57.00
1329;DHT22;658;48.820;9.354;2022-09-01T02:39:22;24.10;57.10
1329;DHT22;658;48.820;9.354;2022-09-01T02:43:24;24.00;56.90
1329;DHT22;658;48.820;9.354;2022-09-01T02:47:27;24.00;56.90
1329;DHT22;658;48.820;9.354;2022-09-01T02:51:28;24.00;56.90
1329;DHT22;658;48.820;9.354;2022-09-01T02:55:28;24.00;56.80
1329;DHT22;658;48.820;9.354;2022-09-01T02:59:29;24.00;56.80
1329;DHT22;658;48.820;9.354;2022-09-01T03:03:30;24.00;56.70
1329;DHT22;658;48.820;9.354;2022-09-01T03:07:32;24.00;56.70
1329;DHT22;658;48.820;9.354;2022-09-01T03:11:36;24.00;56.70
1329;DHT22;658;48.820;9.354;2022-09-01T03:15:37;23.90;56.60
1329;DHT22;658;48.820;9.354;2022-09-01T03:19:38;23.90;56.60
1329;DHT22;658;48.820;9.354;2022-09-01T03:23:46;24.00;56.60
1329;DHT22;658;48.820;9.354;2022-09-01T03:27:46;23.90;56.50
1329;DHT22;658;48.820;9.354;2022-09-01T03:31:47;23.90;56.50
1329;DHT22;658;48.820;9.354;2022-09-01T03:35:48;23.90;56.50
1329;DHT22;658;48.820;9.354;2022-09-01T03:39:49;23.90;56.40
1329;DHT22;658;48.820;9.354;2022-09-01T03:43:50;23.90;56.40
1329;DHT22;658;48.820;9.354;2022-09-01T03:47:54;23.90;56.40
1329;DHT22;658;48.820;9.354;2022-09-01T03:51:55;23.80;56.30
1329;DHT22;658;48.820;9.354;2022-09-01T03:55:57;23.80;56.20
1329;DHT22;658;48.820;9.354;2022-09-01T03:59:59;23.80;56.20
1329;DHT22;658;48.820;9.354;2022-09-01T04:04:00;23.80;56.20
1329;DHT22;658;48.820;9.354;2022-09-01T04:08:03;23.80;56.30
1329;DHT22;658;48.820;9.354;2022-09-01T04:12:05;23.80;56.30
1329;DHT22;658;48.820;9.354;2022-09-01T04:16:23;23.80;56.20
1329;DHT22;658;48.820;9.354;2022-09-01T04:20:43;23.70;56.10
1329;DHT22;658;48.820;9.354;2022-09-01T04:24:49;23.80;56.20
1329;DHT22;658;48.820;9.354;2022-09-01T04:28:51;23.70;56.20
1329;DHT22;658;48.820;9.354;2022-09-01T04:32:53;23.70;56.10
1329;DHT22;658;48.820;9.354;2022-09-01T04:36:56;23.70;56.10
1329;DHT22;658;48.820;9.354;2022-09-01T04:40:58;23.70;56.10
1329;DHT22;658;48.820;9.354;2022-09-01T04:45:02;23.70;56.10
1329;DHT22;658;48.820;9.354;2022-09-01T04:49:04;23.70;56.00
1329;DHT22;658;48.820;9.354;2022-09-01T04:53:09;23.70;56.00
1329;DHT22;658;48.820;9.354;2022-09-01T04:57:11;23.70;55.90
1329;DHT22;658;48.820;9.354;2022-09-01T05:01:20;23.70;55.90
1329;DHT22;658;48.820;9.354;2022-09-01T05:05:22;23.70;55.90
1329;DHT22;658;48.820;9.354;2022-09-01T05:09:22;23.60;55.70
1329;DHT22;658;48.820;9.354;2022-09-01T05:13:24;23.60;55.60
1329;DHT22;658;48.820;9.354;2022-09-01T05:17:28;23.60;55.50
1329;DHT22;658;48.820;9.354;2022-09-01T05:21:29;23.60;55.50
1329;DHT22;658;48.820;9.354;2022-09-01T05:25:30;23.60;55.50
1329;DHT22;658;48.820;9.354;2022-09-01T05:29:31;23.60;55.50
1329;DHT22;658;48.820;9.354;2022-09-01T05:33:32;23.60;55.60
1329;DHT22;658;48.820;9.354;2022-09-01T05:37:37;23.60;55.40
1329;DHT22;658;48.820;9.354;2022-09-01T05:41:40;23.60;55.50
1329;DHT22;658;48.820;9.354;2022-09-01T05:45:42;23.60;55.70
1329;DHT22;658;48.820;9.354;2022-09-01T05:49:43;23.60;55.70
1329;DHT22;658;48.820;9.354;2022-09-01T05:53:47;23.60;55.80
1329;DHT22;658;48.820;9.354;2022-09-01T05:57:50;23.70;55.90
1329;DHT22;658;48.820;9.354;2022-09-01T06:01:52;23.70;55.90
1329;DHT22;658;48.820;9.354;2022-09-01T06:05:54;23.70;56.00
1329;DHT22;658;48.820;9.354;2022-09-01T06:09:55;23.70;56.00
1329;DHT22;658;48.820;9.354;2022-09-01T06:13:56;23.70;56.10
1329;DHT22;658;48.820;9.354;2022-09-01T06:17:58;23.80;56.20
1329;DHT22;658;48.820;9.354;2022-09-01T06:22:00;23.80;56.30
1329;DHT22;658;48.820;9.354;2022-09-01T06:26:01;23.80;56.30
1329;DHT22;658;48.820;9.354;2022-09-01T06:30:04;23.90;56.20
1329;DHT22;658;48.820;9.354;2022-09-01T06:34:14;23.90;55.90
1329;DHT22;658;48.820;9.354;2022-09-01T06:38:17;24.10;55.90
1329;DHT22;658;48.820;9.354;2022-09-01T06:42:18;24.20;55.60
1329;DHT22;658;48.820;9.354;2022-09-01T06:46:21;24.30;55.50
1329;DHT22;658;48.820;9.354;2022-09-01T06:50:22;24.30;55.50
1329;DHT22;658;48.820;9.354;2022-09-01T06:54:24;24.40;55.50
1329;DHT22;658;48.820;9.354;2022-09-01T06:58:24;24.40;55.40
1329;DHT22;658;48.820;9.354;2022-09-01T07:02:25;24.40;55.40
1329;DHT22;658;48.820;9.354;2022-09-01T07:06:26;24.50;55.40
1329;DHT22;658;48.820;9.354;2022-09-01T07:10:27;24.60;55.40
1329;DHT22;658;48.820;9.354;2022-09-01T07:14:28;24.60;55.90
1329;DHT22;658;48.820;9.354;2022-09-01T07:18:29;24.60;55.40
1329;DHT22;658;48.820;9.354;2022-09-01T07:22:30;24.70;55.30
1329;DHT22;658;48.820;9.354;2022-09-01T07:26:32;24.80;55.50
1329;DHT22;658;48.820;9.354;2022-09-01T07:30:40;24.80;55.30
1329;DHT22;658;48.820;9.354;2022-09-01T07:34:41;24.80;55.20
1329;DHT22;658;48.820;9.354;2022-09-01T07:38:44;24.90;55.20
1329;DHT22;658;48.820;9.354;2022-09-01T07:42:46;25.00;55.30
1329;DHT22;658;48.820;9.354;2022-09-01T07:46:47;25.00;55.40
1329;DHT22;658;48.820;9.354;2022-09-01T07:50:53;25.00;55.30
1329;DHT22;658;48.820;9.354;2022-09-01T07:54:55;25.00;55.30
1329;DHT22;658;48.820;9.354;2022-09-01T07:58:56;25.00;55.30
1329;DHT22;658;48.820;9.354;2022-09-01T08:02:57;25.10;55.10
1329;DHT22;658;48.820;9.354;2022-09-01T08:06:59;25.10;55.10
1329;DHT22;658;48.820;9.354;2022-09-01T08:11:01;25.20;55.00
1329;DHT22;658;48.820;9.354;2022-09-01T08:15:03;25.10;54.90
1329;DHT22;658;48.820;9.354;2022-09-01T08:19:04;25.20;55.10
1329;DHT22;658;48.820;9.354;2022-09-01T08:23:05;25.20;55.40
1329;DHT22;658;48.820;9.354;2022-09-01T08:27:06;25.10;55.30
1329;DHT22;658;48.820;9.354;2022-09-01T08:31:13;25.10;55.10
1329;DHT22;658;48.820;9.354;2022-09-01T08:35:14;25.10;54.80
1329;DHT22;658;48.820;9.354;2022-09-01T08:39:15;25.10;54.70
1329;DHT22;658;48.820;9.354;2022-09-01T08:47:30;25.00;54.20
1329;DHT22;658;48.820;9.354;2022-09-01T08:51:39;25.00;53.70
1329;DHT22;658;48.820;9.354;2022-09-01T08:55:44;25.00;53.60
1329;DHT22;658;48.820;9.354;2022-09-01T08:59:46;25.10;53.70
1329;DHT22;658;48.820;9.354;2022-09-01T09:12:58;25.10;54.00
1329;DHT22;658;48.820;9.354;2022-09-01T09:17:02;25.20;53.80
1329;DHT22;658;48.820;9.354;2022-09-01T09:21:34;25.10;53.70
1329;DHT22;658;48.820;9.354;2022-09-01T09:25:36;25.00;53.50
1329;DHT22;658;48.820;9.354;2022-09-01T09:29:36;25.00;53.40
1329;DHT22;658;48.820;9.354;2022-09-01T09:33:38;25.10;53.80
1329;DHT22;658;48.820;9.354;2022-09-01T09:37:39;25.30;53.60
1329;DHT22;658;48.820;9.354;2022-09-01T09:41:40;25.30;53.60
1329;DHT22;658;48.820;9.354;2022-09-01T09:45:41;25.40;53.40
1329;DHT22;658;48.820;9.354;2022-09-01T09:49:42;25.50;53.30
1329;DHT22;658;48.820;9.354;2022-09-01T09:53:43;25.60;53.10
1329;DHT22;658;48.820;9.354;2022-09-01T09:57:43;25.50;53.00
1329;DHT22;658;48.820;9.354;2022-09-01T10:01:44;25.60;52.90
1329;DHT22;658;48.820;9.354;2022-09-01T10:05:47;25.80;52.80
1329;DHT22;658;48.820;9.354;2022-09-01T10:09:52;25.80;52.70
1329;DHT22;658;48.820;9.354;2022-09-01T10:13:54;25.80;52.60
1329;DHT22;658;48.820;9.354;2022-09-01T10:18:21;25.80;52.70
1329;DHT22;658;48.820;9.354;2022-09-01T10:22:22;25.80;52.60
1329;DHT22;658;48.820;9.354;2022-09-01T10:26:34;25.70;52.70
1329;DHT22;658;48.820;9.354;2022-09-01T10:30:39;25.70;52.80
1329;DHT22;658;48.820;9.354;2022-09-01T10:34:43;25.80;52.40
1329;DHT22;658;48.820;9.354;2022-09-01T10:38:46;25.90;52.30
1329;DHT22;658;48.820;9.354;2022-09-01T10:42:53;26.00;52.80
1329;DHT22;658;48.820;9.354;2022-09-01T10:46:55;25.90;52.40
1329;DHT22;658;48.820;9.354;2022-09-01T10:55:17;25.90;52.30
1329;DHT22;658;48.820;9.354;2022-09-01T11:03:38;26.00;52.20
1329;DHT22;658;48.820;9.354;2022-09-01T11:07:48;26.00;52.10
1329;DHT22;658;48.820;9.354;2022-09-01T11:16:25;26.20;51.70
1329;DHT22;658;48.820;9.354;2022-09-01T11:20:33;26.30;51.20
1329;DHT22;658;48.820;9.354;2022-09-01T11:28:40;26.50;50.90
1329;DHT22;658;48.820;9.354;2022-09-01T11:32:41;26.60;50.50
1329;DHT22;658;48.820;9.354;2022-09-01T11:36:46;26.50;50.60
1329;DHT22;658;48.820;9.354;2022-09-01T11:40:57;26.60;50.50
1329;DHT22;658;48.820;9.354;2022-09-01T11:49:06;26.60;50.40
1329;DHT22;658;48.820;9.354;2022-09-01T11:53:13;26.50;50.80
1329;DHT22;658;48.820;9.354;2022-09-01T11:57:27;26.50;51.00
1329;DHT22;658;48.820;9.354;2022-09-01T12:05:31;26.50;51.10
1329;DHT22;658;48.820;9.354;2022-09-01T12:09:35;26.50;51.10
1329;DHT22;658;48.820;9.354;2022-09-01T12:13:38;26.60;50.90
1329;DHT22;658;48.820;9.354;2022-09-01T12:17:39;26.70;50.80
1329;DHT22;658;48.820;9.354;2022-09-01T12:21:42;26.70;50.80
1329;DHT22;658;48.820;9.354;2022-09-01T12:25:44;26.70;50.80
1329;DHT22;658;48.820;9.354;2022-09-01T12:29:45;26.70;50.70
1329;DHT22;658;48.820;9.354;2022-09-01T12:33:47;26.80;50.70
1329;DHT22;658;48.820;9.354;2022-09-01T12:37:47;26.80;50.50
1329;DHT22;658;48.820;9.354;2022-09-01T12:46:39;26.90;50.40
1329;DHT22;658;48.820;9.354;2022-09-01T12:50:43;26.90;50.20
1329;DHT22;658;48.820;9.354;2022-09-01T12:54:46;26.90;50.30
1329;DHT22;658;48.820;9.354;2022-09-01T12:58:50;27.00;50.10
1329;DHT22;658;48.820;9.354;2022-09-01T13:07:05;27.10;49.80
1329;DHT22;658;48.820;9.354;2022-09-01T13:11:07;27.20;49.60
1329;DHT22;658;48.820;9.354;2022-09-01T13:15:09;27.20;49.50
1329;DHT22;658;48.820;9.354;2022-09-01T13:19:10;27.30;49.50
1329;DHT22;658;48.820;9.354;2022-09-01T13:23:10;27.30;49.40
1329;DHT22;658;48.820;9.354;2022-09-01T13:27:12;27.30;49.30
1329;DHT22;658;48.820;9.354;2022-09-01T13:31:14;27.40;49.30
1329;DHT22;658;48.820;9.354;2022-09-01T13:35:17;27.50;49.00
1329;DHT22;658;48.820;9.354;2022-09-01T13:39:19;27.50;48.80
1329;DHT22;658;48.820;9.354;2022-09-01T13:43:22;27.50;48.80
1329;DHT22;658;48.820;9.354;2022-09-01T13:47:26;27.50;48.60
1329;DHT22;658;48.820;9.354;2022-09-01T13:51:27;27.50;48.90
1329;DHT22;658;48.820;9.354;2022-09-01T13:55:31;27.50;48.60
1329;DHT22;658;48.820;9.354;2022-09-01T13:59:32;27.50;49.00
1329;DHT22;658;48.820;9.354;2022-09-01T14:03:33;27.50;48.70
1329;DHT22;658;48.820;9.354;2022-09-01T14:07:34;27.50;48.80
1329;DHT22;658;48.820;9.354;2022-09-01T14:11:35;27.50;48.70
1329;DHT22;658;48.820;9.354;2022-09-01T14:15:36;27.60;49.30
1329;DHT22;658;48.820;9.354;2022-09-01T14:19:36;27.70;48.50
1329;DHT22;658;48.820;9.354;2022-09-01T14:23:37;27.80;48.10
1329;DHT22;658;48.820;9.354;2022-09-01T14:27:38;27.80;48.20
1329;DHT22;658;48.820;9.354;2022-09-01T14:31:38;27.70;48.30
1329;DHT22;658;48.820;9.354;2022-09-01T14:35:42;27.70;48.10
1329;DHT22;658;48.820;9.354;2022-09-01T14:39:48;27.70;48.10
1329;DHT22;658;48.820;9.354;2022-09-01T14:43:51;27.60;48.40
1329;DHT22;658;48.820;9.354;2022-09-01T14:47:54;27.70;48.50
1329;DHT22;658;48.820;9.354;2022-09-01T14:51:55;27.60;48.60
1329;DHT22;658;48.820;9.354;2022-09-01T14:55:56;27.60;48.40
1329;DHT22;658;48.820;9.354;2022-09-01T14:59:58;27.60;48.50
1329;DHT22;658;48.820;9.354;2022-09-01T15:03:59;27.60;48.30
1329;DHT22;658;48.820;9.354;2022-09-01T15:08:00;27.60;48.30
1329;DHT22;658;48.820;9.354;2022-09-01T15:12:01;27.60;48.20
1329;DHT22;658;48.820;9.354;2022-09-01T15:16:02;27.60;48.10
1329;DHT22;658;48.820;9.354;2022-09-01T15:20:04;27.60;48.10
1329;DHT22;658;48.820;9.354;2022-09-01T15:24:23;27.60;47.80
1329;DHT22;658;48.820;9.354;2022-09-01T15:28:25;27.50;48.40
1329;DHT22;658;48.820;9.354;2022-09-01T15:32:25;27.60;48.20
1329;DHT22;658;48.820;9.354;2022-09-01T15:36:28;27.50;48.20
1329;DHT22;658;48.820;9.354;2022-09-01T15:40:28;27.50;48.30
1329;DHT22;658;48.820;9.354;2022-09-01T15:44:29;27.50;48.60
1329;DHT22;658;48.820;9.354;2022-09-01T15:48:30;27.30;48.70
1329;DHT22;658;48.820;9.354;2022-09-01T15:52:32;27.30;48.80
1329;DHT22;658;48.820;9.354;2022-09-01T15:56:34;27.30;48.70
1329;DHT22;658;48.820;9.354;2022-09-01T16:00:35;27.30;48.50
1329;DHT22;658;48.820;9.354;2022-09-01T16:04:36;27.40;48.50
1329;DHT22;658;48.820;9.354;2022-09-01T16:08:36;27.30;48.60
1329;DHT22;658;48.820;9.354;2022-09-01T16:12:41;27.20;48.80
1329;DHT22;658;48.820;9.354;2022-09-01T16:16:54;27.10;48.80
1329;DHT22;658;48.820;9.354;2022-09-01T16:21:28;27.00;48.90
1329;DHT22;658;48.820;9.354;2022-09-01T16:25:33;27.00;48.80
1329;DHT22;658;48.820;9.354;2022-09-01T16:33:46;27.00;49.00
1329;DHT22;658;48.820;9.354;2022-09-01T16:42:29;27.10;48.10
1329;DHT22;658;48.820;9.354;2022-09-01T16:51:40;27.00;48.50
1329;DHT22;658;48.820;9.354;2022-09-01T17:00:14;27.00;48.00
1329;DHT22;658;48.820;9.354;2022-09-01T17:08:50;26.90;48.50
1329;DHT22;658;48.820;9.354;2022-09-01T17:12:54;26.90;48.50
1329;DHT22;658;48.820;9.354;2022-09-01T17:17:06;26.80;48.50
1329;DHT22;658;48.820;9.354;2022-09-01T17:25:54;26.80;48.60
1329;DHT22;658;48.820;9.354;2022-09-01T17:29:58;26.90;48.40
1329;DHT22;658;48.820;9.354;2022-09-01T17:34:10;26.80;48.60
1329;DHT22;658;48.820;9.354;2022-09-01T17:43:01;26.80;48.80
1329;DHT22;658;48.820;9.354;2022-09-01T17:47:15;26.70;48.90
1329;DHT22;658;48.820;9.354;2022-09-01T17:51:29;26.60;48.80
1329;DHT22;658;48.820;9.354;2022-09-01T17:55:55;26.60;48.90
1329;DHT22;658;48.820;9.354;2022-09-01T18:00:07;26.60;49.00
1329;DHT22;658;48.820;9.354;2022-09-01T18:08:43;26.60;48.90
1329;DHT22;658;48.820;9.354;2022-09-01T18:12:47;26.60;48.90
1329;DHT22;658;48.820;9.354;2022-09-01T18:17:21;26.50;49.00
1329;DHT22;658;48.820;9.354;2022-09-01T18:21:35;26.50;49.10
1329;DHT22;658;48.820;9.354;2022-09-01T18:25:46;26.50;49.10
1329;DHT22;658;48.820;9.354;2022-09-01T18:29:49;26.40;49.70
1329;DHT22;658;48.820;9.354;2022-09-01T18:34:15;26.40;49.20
1329;DHT22;658;48.820;9.354;2022-09-01T18:38:30;26.40;49.20
1329;DHT22;658;48.820;9.354;2022-09-01T18:46:58;26.40;49.10
1329;DHT22;658;48.820;9.354;2022-09-01T18:51:06;26.60;48.80
1329;DHT22;658;48.820;9.354;2022-09-01T19:04:17;26.60;48.50
1329;DHT22;658;48.820;9.354;2022-09-01T19:14:10;26.50;48.40
1329;DHT22;658;48.820;9.354;2022-09-01T19:21:45;26.50;48.30
1329;DHT22;658;48.820;9.354;2022-09-01T19:25:48;26.40;48.20
1329;DHT22;658;48.820;9.354;2022-09-01T19:29:54;26.40;48.20
1329;DHT22;658;48.820;9.354;2022-09-01T19:33:59;26.30;48.10
1329;DHT22;658;48.820;9.354;2022-09-01T19:38:06;26.30;48.20
1329;DHT22;658;48.820;9.354;2022-09-01T19:46:42;26.30;48.30
1329;DHT22;658;48.820;9.354;2022-09-01T19:50:54;26.30;48.40
1329;DHT22;658;48.820;9.354;2022-09-01T19:55:11;26.30;48.40
1329;DHT22;658;48.820;9.354;2022-09-01T19:59:40;26.20;48.20
1329;DHT22;658;48.820;9.354;2022-09-01T20:03:50;26.20;48.20
1329;DHT22;658;48.820;9.354;2022-09-01T20:08:11;26.20;48.10
1329;DHT22;658;48.820;9.354;2022-09-01T20:16:40;26.20;48.10
1329;DHT22;658;48.820;9.354;2022-09-01T20:20:45;26.20;48.10
1329;DHT22;658;48.820;9.354;2022-09-01T20:24:46;26.20;48.00
1329;DHT22;658;48.820;9.354;2022-09-01T20:29:54;26.10;47.90
1329;DHT22;658;48.820;9.354;2022-09-01T20:37:48;26.10;47.90
1329;DHT22;658;48.820;9.354;2022-09-01T20:46:06;26.00;47.90
1329;DHT22;658;48.820;9.354;2022-09-01T20:50:12;26.00;48.10
1329;DHT22;658;48.820;9.354;2022-09-01T20:58:39;25.90;48.00
1329;DHT22;658;48.820;9.354;2022-09-01T21:03:04;25.30;49.20
1329;DHT22;658;48.820;9.354;2022-09-01T21:07:18;25.20;49.80
1329;DHT22;658;48.820;9.354;2022-09-01T21:15:40;25.20;50.10
1329;DHT22;658;48.820;9.354;2022-09-01T21:19:59;25.10;50.10
1329;DHT22;658;48.820;9.354;2022-09-01T21:24:02;25.00;50.20
1329;DHT22;658;48.820;9.354;2022-09-01T21:28:04;25.00;50.50
1329;DHT22;658;48.820;9.354;2022-09-01T21:32:05;24.90;50.70
1329;DHT22;658;48.820;9.354;2022-09-01T21:36:06;24.80;50.80
1329;DHT22;658;48.820;9.354;2022-09-01T21:40:08;24.70;50.90
1329;DHT22;658;48.820;9.354;2022-09-01T21:44:10;24.70;50.90
1329;DHT22;658;48.820;9.354;2022-09-01T21:48:11;24.70;51.00
1329;DHT22;658;48.820;9.354;2022-09-01T21:52:11;24.70;50.90
1329;DHT22;658;48.820;9.354;2022-09-01T21:56:12;24.70;51.00
1329;DHT22;658;48.820;9.354;2022-09-01T22:00:16;24.60;51.00
1329;DHT22;658;48.820;9.354;2022-09-01T22:04:17;24.50;51.00
1329;DHT22;658;48.820;9.354;2022-09-01T22:08:18;24.50;51.20
1329;DHT22;658;48.820;9.354;2022-09-01T22:12:19;24.50;51.30
1329;DHT22;658;48.820;9.354;2022-09-01T22:16:20;24.50;51.40
1329;DHT22;658;48.820;9.354;2022-09-01T22:20:22;24.40;51.40
1329;DHT22;658;48.820;9.354;2022-09-01T22:24:23;24.40;51.50
1329;DHT22;658;48.820;9.354;2022-09-01T22:28:24;24.40;51.50
1329;DHT22;658;48.820;9.354;2022-09-01T22:32:25;24.30;51.60
1329;DHT22;658;48.820;9.354;2022-09-01T22:36:33;24.20;51.80
1329;DHT22;658;48.820;9.354;2022-09-01T22:40:34;24.10;51.90
1329;DHT22;658;48.820;9.354;2022-09-01T22:44:35;24.10;51.90
1329;DHT22;658;48.820;9.354;2022-09-01T22:48:36;24.10;52.00
1329;DHT22;658;48.820;9.354;2022-09-01T22:52:37;24.00;52.10
1329;DHT22;658;48.820;9.354;2022-09-01T22:56:40;24.00;52.10
1329;DHT22;658;48.820;9.354;2022-09-01T23:00:50;24.00;52.10
1329;DHT22;658;48.820;9.354;2022-09-01T23:04:51;24.00;52.10
1329;DHT22;658;48.820;9.354;2022-09-01T23:08:52;24.00;52.10
1329;DHT22;658;48.820;9.354;2022-09-01T23:12:53;24.00;52.10
1329;DHT22;658;48.820;9.354;2022-09-01T23:16:53;23.90;52.10
1329;DHT22;658;48.820;9.354;2022-09-01T23:20:54;24.00;52.30
1329;DHT22;658;48.820;9.354;2022-09-01T23:24:54;23.90;52.20
1329;DHT22;658;48.820;9.354;2022-09-01T23:28:56;23.80;52.30
1329;DHT22;658;48.820;9.354;2022-09-01T23:32:56;23.80;52.30
1329;DHT22;658;48.820;9.354;2022-09-01T23:36:57;23.80;52.40
1329;DHT22;658;48.820;9.354;2022-09-01T23:40:58;23.70;52.30
1329;DHT22;658;48.820;9.354;2022-09-01T23:44:59;23.70;52.40
1329;DHT22;658;48.820;9.354;2022-09-01T23:49:00;23.70;52.40
1329;DHT22;658;48.820;9.354;2022-09-01T23:53:01;23.70;52.50
1329;DHT22;658;48.820;9.354;2022-09-01T23:57:01;23.60;52.50
